Time;durP1;ratioP1;P1;durP2;ratioP2;P2;SDS_P1;SDS_P2;PMS_P1;PMS_P2;Temp;Humidity;BMP_temperature;BMP_pressure;BME280_temperature;BME280_humidity;BME280_pressure;Samples;Min_cycle;Max_cycle;Signal;HPM_P1;HPM_P2
2022/04/10 00:02:25;;;;;;;5.18;1.88;;;;;;;-141.50;100.00;63355.56;5068525;28;20048;-77
2022/04/10 00:04:52;;;;;;;4.13;1.92;;;;;;;-141.50;100.00;63355.56;5076567;28;20052;-78
2022/04/10 00:07:18;;;;;;;5.15;1.73;;;;;;;-141.50;100.00;63355.56;5086520;28;20843;-76
2022/04/10 00:09:44;;;;;;;5.63;1.90;;;;;;;-141.50;100.00;63355.56;5078185;28;20052;-78
2022/04/10 00:12:11;;;;;;;7.32;2.28;;;;;;;-141.50;100.00;63355.56;5085968;28;20095;-78
2022/04/10 00:14:37;;;;;;;6.50;2.03;;;;;;;-141.50;100.00;63355.56;5073696;28;20106;-79
2022/04/10 00:17:04;;;;;;;7.15;1.83;;;;;;;-141.50;100.00;63355.56;5081097;28;20081;-78
2022/04/10 00:19:31;;;;;;;3.90;1.90;;;;;;;-141.50;100.00;63355.56;5069050;28;20234;-78
2022/04/10 00:21:57;;;;;;;5.82;2.00;;;;;;;-141.50;100.00;63355.56;5087893;28;20530;-77
2022/04/10 00:24:25;;;;;;;6.40;2.20;;;;;;;-141.50;100.00;63355.56;5086643;28;20623;-78
2022/04/10 00:26:52;;;;;;;6.53;1.73;;;;;;;-141.50;100.00;63355.56;5069259;28;20051;-79
2022/04/10 00:29:19;;;;;;;4.68;1.75;;;;;;;-141.50;100.00;63355.56;5088014;28;20536;-79
2022/04/10 00:31:45;;;;;;;7.30;1.85;;;;;;;-141.50;100.00;63355.56;5072759;28;20431;-78
2022/04/10 00:34:13;;;;;;;6.38;1.80;;;;;;;-141.50;100.00;63355.56;5098737;28;20048;-76
2022/04/10 00:36:40;;;;;;;7.38;1.67;;;;;;;-141.50;100.00;63355.56;5067779;28;20109;-77
2022/04/10 00:39:06;;;;;;;6.75;1.50;;;;;;;-141.50;100.00;63355.56;5068459;28;20492;-79
2022/04/10 00:41:33;;;;;;;5.95;1.48;;;;;;;-141.50;100.00;63355.56;5086096;28;20616;-77
2022/04/10 00:44:08;;;;;;;10.73;1.42;;;;;;;-141.50;100.00;63355.56;5086165;28;20091;-77
2022/04/10 00:46:35;;;;;;;9.40;1.52;;;;;;;-141.50;100.00;63355.56;5085169;28;20163;-78
2022/04/10 00:49:03;;;;;;;9.93;1.40;;;;;;;-141.50;100.00;63355.56;5085135;28;20052;-79
2022/04/10 00:51:40;;;;;;;4.75;1.35;;;;;;;-141.50;100.00;63355.56;5090356;28;20052;-77
2022/04/10 00:54:18;;;;;;;5.63;1.20;;;;;;;-141.50;100.00;63355.56;5093350;28;20052;-77
2022/04/10 00:56:46;;;;;;;7.50;1.55;;;;;;;-141.50;100.00;63355.56;5093244;28;20086;-77
2022/04/10 00:59:13;;;;;;;5.93;1.42;;;;;;;-141.50;100.00;63355.56;5090216;28;20101;-77
2022/04/10 01:01:44;;;;;;;5.85;2.28;;;;;;;-141.50;100.00;63355.56;5089719;28;20058;-79
2022/04/10 01:04:31;;;;;;;5.90;1.38;;;;;;;-141.50;100.00;63355.56;5090296;28;20130;-77
2022/04/10 01:06:59;;;;;;;10.15;1.42;;;;;;;-141.50;100.00;63355.56;5094211;28;20048;-77
2022/04/10 01:09:27;;;;;;;7.93;1.30;;;;;;;-141.50;100.00;63355.56;5093481;28;20142;-78
2022/04/10 01:11:54;;;;;;;6.38;1.38;;;;;;;-141.50;100.00;63355.56;5090946;28;20143;-80
2022/04/10 01:14:21;;;;;;;2.55;1.08;;;;;;;-141.50;100.00;63355.56;5090991;28;20056;-78
2022/04/10 01:16:48;;;;;;;8.10;1.35;;;;;;;-141.50;100.00;63355.56;5076278;28;20047;-79
2022/04/10 01:19:20;;;;;;;11.20;1.45;;;;;;;-141.50;100.00;63355.56;5095145;28;20496;-77
2022/04/10 01:21:48;;;;;;;9.05;1.60;;;;;;;-141.50;100.00;63355.56;5105139;28;20055;-79
2022/04/10 01:24:15;;;;;;;10.40;1.50;;;;;;;-141.50;100.00;63355.56;5115877;28;20297;-77
2022/04/10 01:26:43;;;;;;;10.65;1.60;;;;;;;-141.50;100.00;63355.56;5096024;28;20059;-77
2022/04/10 01:29:11;;;;;;;6.28;1.40;;;;;;;-141.50;100.00;63355.56;5078985;28;20052;-77
2022/04/10 01:31:40;;;;;;;5.88;1.15;;;;;;;-141.50;100.00;63355.56;5096285;28;20071;-77
2022/04/10 01:34:09;;;;;;;5.95;1.40;;;;;;;-141.50;100.00;63355.56;5075814;28;20048;-77
2022/04/10 01:36:37;;;;;;;9.75;1.30;;;;;;;-141.50;100.00;63355.56;5074372;28;20051;-77
2022/04/10 01:39:06;;;;;;;7.88;1.33;;;;;;;-141.50;100.00;63355.56;5077048;28;20048;-78
2022/04/10 01:41:36;;;;;;;7.55;1.50;;;;;;;-141.50;100.00;63355.56;5094674;28;20086;-78
2022/04/10 01:44:05;;;;;;;4.93;1.17;;;;;;;-141.50;100.00;63355.56;5095547;28;20113;-80
2022/04/10 01:46:33;;;;;;;7.65;1.50;;;;;;;-141.50;100.00;63355.56;5093660;28;20093;-77
2022/04/10 01:49:00;;;;;;;11.80;1.50;;;;;;;-141.50;100.00;63355.56;5078941;28;20092;-79
2022/04/10 01:51:27;;;;;;;9.27;1.35;;;;;;;-141.50;100.00;63355.56;5093123;28;20078;-76
2022/04/10 01:53:54;;;;;;;10.50;1.60;;;;;;;-141.50;100.00;63355.56;5093076;28;20143;-78
2022/04/10 01:56:21;;;;;;;9.65;1.60;;;;;;;-141.50;100.00;63355.56;5076080;28;20111;-76
2022/04/10 01:58:52;;;;;;;7.50;1.48;;;;;;;-141.50;100.00;63355.56;5074451;28;20044;-78
2022/04/10 02:01:19;;;;;;;10.75;1.60;;;;;;;-141.50;100.00;63355.56;5090752;28;20113;-76
2022/04/10 02:03:46;;;;;;;7.40;1.60;;;;;;;-141.50;100.00;63355.56;5091992;28;20044;-76
2022/04/10 02:06:15;;;;;;;7.63;1.45;;;;;;;-141.50;100.00;63355.56;5073420;28;20129;-79
2022/04/10 02:08:42;;;;;;;5.00;1.42;;;;;;;-141.50;100.00;63355.56;5065668;28;20455;-79
2022/04/10 02:11:17;;;;;;;6.55;1.42;;;;;;;-141.50;100.00;63355.56;5091869;28;20056;-78
2022/04/10 02:13:45;;;;;;;11.10;1.85;;;;;;;-141.50;100.00;63355.56;5090968;28;20040;-79
2022/04/10 02:16:17;;;;;;;6.95;1.52;;;;;;;-141.50;100.00;63355.56;5090830;28;20082;-79
2022/04/10 02:18:44;;;;;;;13.18;1.85;;;;;;;-141.50;100.00;63355.56;5090761;28;20048;-78
2022/04/10 02:21:11;;;;;;;8.25;1.42;;;;;;;-141.50;100.00;63355.56;5082932;28;20052;-78
2022/04/10 02:23:38;;;;;;;8.07;1.50;;;;;;;-141.50;100.00;63355.56;5090915;28;20127;-79
2022/04/10 02:26:05;;;;;;;11.52;1.73;;;;;;;-141.50;100.00;63355.56;5071907;28;20048;-80
2022/04/10 02:28:31;;;;;;;13.05;1.40;;;;;;;-141.50;100.00;63355.56;5075429;28;20140;-77
2022/04/10 02:30:58;;;;;;;9.45;1.48;;;;;;;-141.50;100.00;63355.56;5076775;28;20078;-78
2022/04/10 02:33:24;;;;;;;7.30;1.38;;;;;;;-141.50;100.00;63355.56;5076833;28;20527;-78
2022/04/10 02:35:51;;;;;;;6.85;1.58;;;;;;;-141.50;100.00;63355.56;5076805;28;20071;-75
2022/04/10 02:38:17;;;;;;;8.25;1.40;;;;;;;-141.50;100.00;63355.56;5100751;28;20178;-78
2022/04/10 02:40:45;;;;;;;7.55;1.50;;;;;;;-141.50;100.00;63355.56;5094376;28;20086;-79
2022/04/10 02:43:13;;;;;;;8.05;1.83;;;;;;;-141.50;100.00;63355.56;5075904;28;20079;-77
2022/04/10 02:45:41;;;;;;;8.13;1.67;;;;;;;-141.50;100.00;63355.56;5094101;28;20079;-77
2022/04/10 02:48:08;;;;;;;16.23;1.45;;;;;;;-141.50;100.00;63355.56;5074353;28;20048;-79
2022/04/10 02:50:39;;;;;;;7.88;1.40;;;;;;;-141.50;100.00;63355.56;5090523;28;20113;-78
2022/04/10 02:53:06;;;;;;;7.95;1.40;;;;;;;-141.50;100.00;63355.56;5071769;28;20098;-78
2022/04/10 02:55:33;;;;;;;5.28;1.45;;;;;;;-141.50;100.00;63355.56;5072033;28;20112;-80
2022/04/10 02:58:00;;;;;;;8.82;1.77;;;;;;;-141.50;100.00;63355.56;5090175;28;20056;-77
2022/04/10 03:00:27;;;;;;;6.38;1.70;;;;;;;-141.50;100.00;63355.56;5091050;28;20079;-78
2022/04/10 03:02:53;;;;;;;7.75;1.48;;;;;;;-141.50;100.00;63355.56;5091989;28;20155;-78
2022/04/10 03:05:20;;;;;;;9.32;1.60;;;;;;;-141.50;100.00;63355.56;5091083;28;20097;-77
2022/04/10 03:07:47;;;;;;;4.90;1.10;;;;;;;-141.50;100.00;63355.56;5089203;28;20416;-77
2022/04/10 03:10:13;;;;;;;4.35;1.42;;;;;;;-141.50;100.00;63355.56;5082944;28;20175;-77
2022/04/10 03:12:40;;;;;;;7.72;1.60;;;;;;;-141.50;100.00;63355.56;5071704;28;20040;-78
2022/04/10 03:15:07;;;;;;;8.88;1.45;;;;;;;-141.50;100.00;63355.56;5089906;28;20088;-79
2022/04/10 03:17:33;;;;;;;6.68;1.60;;;;;;;-141.50;100.00;63355.56;5072154;28;20051;-78
2022/04/10 03:20:01;;;;;;;11.02;1.70;;;;;;;-141.50;100.00;63355.56;5090179;28;20094;-79
2022/04/10 03:22:27;;;;;;;8.68;1.73;;;;;;;-141.50;100.00;63355.56;5089987;28;20048;-78
2022/04/10 03:24:54;;;;;;;11.02;1.80;;;;;;;-141.50;100.00;63355.56;5089664;28;20091;-78
2022/04/10 03:27:20;;;;;;;9.32;1.48;;;;;;;-141.50;100.00;63355.56;5090638;28;20063;-80
2022/04/10 03:29:48;;;;;;;7.03;1.50;;;;;;;-141.50;100.00;63355.56;5089782;28;20055;-78
2022/04/10 03:32:14;;;;;;;12.77;1.90;;;;;;;-141.50;100.00;63355.56;5092138;28;20107;-76
2022/04/10 03:34:41;;;;;;;10.85;1.77;;;;;;;-141.50;100.00;63355.56;5075742;28;20127;-76
2022/04/10 03:37:07;;;;;;;7.03;1.50;;;;;;;-141.50;100.00;63355.56;5093941;28;20107;-78
2022/04/10 03:39:34;;;;;;;11.27;1.75;;;;;;;-141.50;100.00;63355.56;5074045;28;20107;-79
2022/04/10 03:42:01;;;;;;;6.80;1.30;;;;;;;-141.50;100.00;63355.56;5090478;28;20063;-79
2022/04/10 03:44:27;;;;;;;3.90;1.40;;;;;;;-141.50;100.00;63355.56;5090966;28;20106;-77
2022/04/10 03:46:54;;;;;;;5.57;1.60;;;;;;;-141.50;100.00;63355.56;5090163;28;20136;-78
2022/04/10 03:49:20;;;;;;;9.75;1.60;;;;;;;-141.50;100.00;63355.56;5091245;28;20056;-78
2022/04/10 03:51:47;;;;;;;7.32;1.60;;;;;;;-141.50;100.00;63355.56;5072687;28;20083;-78
2022/04/10 03:54:13;;;;;;;6.47;1.65;;;;;;;-141.50;100.00;63355.56;5090270;28;20127;-78
2022/04/10 03:56:41;;;;;;;8.60;1.50;;;;;;;-141.50;100.00;63355.56;5072016;28;20075;-78
2022/04/10 03:59:08;;;;;;;7.95;1.60;;;;;;;-141.50;100.00;63355.56;5071487;28;20052;-77
2022/04/10 04:01:34;;;;;;;10.18;1.67;;;;;;;-141.50;100.00;63355.56;5071941;28;20052;-77
2022/04/10 04:04:01;;;;;;;10.82;1.75;;;;;;;-141.50;100.00;63355.56;5089805;28;20044;-78
2022/04/10 04:06:28;;;;;;;9.38;1.67;;;;;;;-141.50;100.00;63355.56;5084067;28;20101;-78
2022/04/10 04:08:54;;;;;;;11.65;1.98;;;;;;;-141.50;100.00;63355.56;5087744;28;20558;-79
2022/04/10 04:11:20;;;;;;;7.35;1.75;;;;;;;-141.50;100.00;63355.56;5097513;28;20048;-78
2022/04/10 04:13:47;;;;;;;12.80;2.28;;;;;;;-141.50;100.00;63355.56;5072323;28;20067;-77
2022/04/10 04:16:13;;;;;;;7.95;1.45;;;;;;;-141.50;100.00;63355.56;5071590;28;20122;-77
2022/04/10 04:18:40;;;;;;;9.80;1.90;;;;;;;-141.50;100.00;63355.56;5071039;28;20048;-77
2022/04/10 04:21:07;;;;;;;13.40;2.35;;;;;;;-141.50;100.00;63355.56;5070997;28;20052;-77
2022/04/10 04:23:33;;;;;;;7.70;2.33;;;;;;;-141.50;100.00;63355.56;5089069;28;20048;-77
2022/04/10 04:26:00;;;;;;;9.02;1.88;;;;;;;-141.50;100.00;63355.56;5071202;28;20457;-77
2022/04/10 04:28:26;;;;;;;7.30;1.92;;;;;;;-141.50;100.00;63355.56;5071595;28;20204;-78
2022/04/10 04:30:53;;;;;;;7.97;2.10;;;;;;;-141.50;100.00;63355.56;5088506;28;20056;-78
2022/04/10 04:33:20;;;;;;;6.50;1.83;;;;;;;-141.50;100.00;63355.56;5088939;28;20048;-77
2022/04/10 04:35:47;;;;;;;10.13;2.42;;;;;;;-141.50;100.00;63355.56;5071679;28;20109;-78
2022/04/10 04:38:13;;;;;;;4.40;1.70;;;;;;;-141.50;100.00;63355.56;5090113;28;20202;-78
2022/04/10 04:40:40;;;;;;;11.75;2.50;;;;;;;-141.50;100.00;63355.56;5102825;28;20052;-77
2022/04/10 04:43:08;;;;;;;5.22;2.05;;;;;;;-141.50;100.00;63355.56;5089544;28;20181;-79
2022/04/10 04:45:35;;;;;;;7.60;2.15;;;;;;;-141.50;100.00;63355.56;5089899;28;20052;-76
2022/04/10 04:48:01;;;;;;;7.80;2.20;;;;;;;-141.50;100.00;63355.56;5089972;28;20050;-76
2022/04/10 04:50:29;;;;;;;8.93;2.05;;;;;;;-141.50;100.00;63355.56;5094466;28;20101;-80
2022/04/10 04:52:55;;;;;;;9.32;2.03;;;;;;;-141.50;100.00;63355.56;5093667;28;20079;-76
2022/04/10 04:55:22;;;;;;;8.23;2.20;;;;;;;-141.50;100.00;63355.56;5093513;28;20048;-76
2022/04/10 04:57:48;;;;;;;13.50;2.35;;;;;;;-141.50;100.00;63355.56;5096124;28;20073;-78
2022/04/10 05:00:15;;;;;;;8.32;2.78;;;;;;;-141.50;100.00;63355.56;5105546;28;20058;-78
2022/04/10 05:02:43;;;;;;;5.30;2.03;;;;;;;-141.50;100.00;63355.56;5093445;28;20055;-79
2022/04/10 05:05:10;;;;;;;10.45;2.30;;;;;;;-141.50;100.00;63355.56;5096408;28;20063;-77
2022/04/10 05:07:37;;;;;;;12.85;2.60;;;;;;;-141.50;100.00;63355.56;5098464;28;20448;-77
2022/04/10 05:10:04;;;;;;;7.95;2.03;;;;;;;-141.50;100.00;63355.56;5074840;28;20087;-78
2022/04/10 05:12:32;;;;;;;11.90;2.45;;;;;;;-141.50;100.00;63355.56;5092168;28;20617;-80
2022/04/10 05:14:59;;;;;;;13.80;2.28;;;;;;;-141.50;100.00;63355.56;5081357;28;20445;-78
2022/04/10 05:17:28;;;;;;;7.65;2.40;;;;;;;-141.50;100.00;63355.56;5096235;28;20044;-78
2022/04/10 05:19:55;;;;;;;6.82;2.30;;;;;;;-141.50;100.00;63355.56;5092840;28;20051;-78
2022/04/10 05:22:21;;;;;;;8.65;1.90;;;;;;;-141.50;100.00;63355.56;5075012;28;20472;-78
2022/04/10 05:24:48;;;;;;;10.35;2.45;;;;;;;-141.50;100.00;63355.56;5076526;28;20039;-80
2022/04/10 05:27:14;;;;;;;11.30;2.58;;;;;;;-141.50;100.00;63355.56;5106794;28;20282;-77
2022/04/10 05:29:41;;;;;;;10.05;2.47;;;;;;;-141.50;100.00;63355.56;5101259;28;20118;-78
2022/04/10 05:32:08;;;;;;;9.57;2.40;;;;;;;-141.50;100.00;63355.56;5106874;28;20047;-77
2022/04/10 05:34:35;;;;;;;7.05;2.33;;;;;;;-141.50;100.00;63355.56;5100998;28;20113;-77
2022/04/10 05:37:01;;;;;;;10.63;2.25;;;;;;;-141.50;100.00;63355.56;5082685;28;20452;-79
2022/04/10 05:39:28;;;;;;;11.02;2.13;;;;;;;-141.50;100.00;63355.56;5095937;28;20071;-78
2022/04/10 05:41:54;;;;;;;5.78;2.00;;;;;;;-141.50;100.00;63355.56;5092731;28;20137;-77
2022/04/10 05:44:21;;;;;;;14.27;2.33;;;;;;;-141.50;100.00;63355.56;5093141;28;20118;-78
2022/04/10 05:46:47;;;;;;;8.02;1.80;;;;;;;-141.50;100.00;63355.56;5075251;28;20048;-78
2022/04/10 05:49:15;;;;;;;10.05;2.20;;;;;;;-141.50;100.00;63355.56;5092934;28;20109;-78
2022/04/10 05:51:42;;;;;;;8.73;2.50;;;;;;;-141.50;100.00;63355.56;5094036;28;20074;-79
2022/04/10 05:54:08;;;;;;;8.32;2.28;;;;;;;-141.50;100.00;63355.56;5077284;28;20131;-78
2022/04/10 05:56:35;;;;;;;8.18;2.20;;;;;;;-141.50;100.00;63355.56;5074786;28;20163;-76
2022/04/10 05:59:02;;;;;;;7.10;2.75;;;;;;;-141.50;100.00;63355.56;5092697;28;20120;-76
2022/04/10 06:01:28;;;;;;;8.50;2.15;;;;;;;-141.50;100.00;63355.56;5090929;28;20055;-77
2022/04/10 06:03:55;;;;;;;7.07;2.30;;;;;;;-141.50;100.00;63355.56;5091918;28;20093;-77
2022/04/10 06:06:21;;;;;;;14.93;3.10;;;;;;;-141.50;100.00;63355.56;5091736;28;20102;-77
2022/04/10 06:08:48;;;;;;;7.65;1.90;;;;;;;-141.50;100.00;63355.56;5090660;28;20109;-78
2022/04/10 06:11:14;;;;;;;8.13;2.40;;;;;;;-141.50;100.00;63355.56;5053767;28;20099;-79
2022/04/10 06:13:41;;;;;;;8.70;2.20;;;;;;;-141.50;100.00;63355.56;5073341;28;20108;-78
2022/04/10 06:16:08;;;;;;;11.98;2.50;;;;;;;-141.50;100.00;63355.56;5075311;28;20446;-78
2022/04/10 06:18:34;;;;;;;8.63;2.33;;;;;;;-141.50;100.00;63355.56;5074527;28;20660;-79
2022/04/10 06:21:01;;;;;;;9.18;2.50;;;;;;;-141.50;100.00;63355.56;5063647;28;20113;-77
2022/04/10 06:23:27;;;;;;;7.82;2.35;;;;;;;-141.50;100.00;63355.56;5084830;28;20048;-79
2022/04/10 06:25:54;;;;;;;11.90;3.45;;;;;;;-141.50;100.00;63355.56;5089296;28;20051;-79
2022/04/10 06:28:21;;;;;;;12.48;2.83;;;;;;;-141.50;100.00;63355.56;5090782;28;20113;-78
2022/04/10 06:30:47;;;;;;;5.50;2.55;;;;;;;-141.50;100.00;63355.56;5093233;28;20556;-79
2022/04/10 06:33:14;;;;;;;7.57;2.60;;;;;;;-141.50;100.00;63355.56;5090348;28;20162;-81
2022/04/10 06:35:41;;;;;;;12.55;3.00;;;;;;;-141.50;100.00;63355.56;5080765;28;20052;-76
2022/04/10 06:38:08;;;;;;;11.75;2.90;;;;;;;-141.50;100.00;63355.56;5089489;28;20067;-76
2022/04/10 06:40:34;;;;;;;8.20;2.95;;;;;;;-141.50;100.00;63355.56;5093173;28;20056;-79
2022/04/10 06:43:04;;;;;;;12.23;3.03;;;;;;;-141.50;100.00;63355.56;5095561;28;20089;-78
2022/04/10 06:45:31;;;;;;;8.13;2.75;;;;;;;-141.50;100.00;63355.56;5087638;28;20059;-80
2022/04/10 06:47:57;;;;;;;7.72;2.50;;;;;;;-141.50;100.00;63355.56;5091267;28;20058;-77
2022/04/10 06:50:24;;;;;;;12.43;3.05;;;;;;;-141.50;100.00;63355.56;5089048;28;20083;-80
2022/04/10 06:52:50;;;;;;;13.15;3.17;;;;;;;-141.50;100.00;63355.56;5103917;28;20134;-82
2022/04/10 06:55:17;;;;;;;7.97;3.17;;;;;;;-141.50;100.00;63355.56;5092907;28;20039;-84
2022/04/10 06:57:46;;;;;;;13.55;2.85;;;;;;;-141.50;100.00;63355.56;5098455;28;20101;-81
2022/04/10 07:00:13;;;;;;;8.02;2.75;;;;;;;-141.50;100.00;63355.56;5096239;28;20074;-80
2022/04/10 07:02:40;;;;;;;8.40;2.67;;;;;;;-141.50;100.00;63355.56;5067935;28;20560;-82
2022/04/10 07:05:07;;;;;;;10.52;2.97;;;;;;;-141.50;100.00;63355.56;5093072;28;20551;-79
2022/04/10 07:07:33;;;;;;;6.85;2.72;;;;;;;-141.50;100.00;63355.56;5097157;28;20484;-80
2022/04/10 07:10:00;;;;;;;7.45;2.00;;;;;;;-141.50;100.00;63355.56;5094778;28;20163;-80
2022/04/10 07:12:26;;;;;;;11.05;2.50;;;;;;;-141.50;100.00;63355.56;5079409;28;20362;-80
2022/04/10 07:14:53;;;;;;;8.98;2.35;;;;;;;-141.50;100.00;63355.56;5096027;28;20237;-81
2022/04/10 07:17:20;;;;;;;9.30;2.50;;;;;;;-141.50;100.00;63355.56;5099681;28;20139;-81
2022/04/10 07:19:46;;;;;;;9.57;2.60;;;;;;;-141.50;100.00;63355.56;5097299;28;20079;-83
2022/04/10 07:25:05;;;;;;;9.38;2.47;;;;;;;-141.50;100.00;63355.56;5070159;28;20056;-83
2022/04/10 07:27:32;;;;;;;10.20;2.67;;;;;;;-141.50;100.00;63355.56;5079232;28;20079;-82
2022/04/10 07:29:58;;;;;;;9.98;2.75;;;;;;;-141.50;100.00;63355.56;5082768;28;20552;-83
2022/04/10 07:32:25;;;;;;;7.78;2.60;;;;;;;-141.50;100.00;63355.56;5091579;28;20176;-80
2022/04/10 07:34:53;;;;;;;10.55;2.55;;;;;;;-141.50;100.00;63355.56;5091942;28;20178;-81
2022/04/10 07:37:21;;;;;;;10.43;2.15;;;;;;;-141.50;100.00;63355.56;5089064;28;20060;-80
2022/04/10 07:39:50;;;;;;;13.45;2.25;;;;;;;-141.50;100.00;63355.56;5090159;28;20144;-81
2022/04/10 07:42:16;;;;;;;13.20;2.28;;;;;;;-141.50;100.00;63355.56;5075133;28;20107;-78
2022/04/10 07:45:03;;;;;;;11.27;2.50;;;;;;;-141.50;100.00;63355.56;5092970;28;20171;-77
2022/04/10 07:47:31;;;;;;;13.18;2.10;;;;;;;-141.50;100.00;63355.56;5066949;28;20052;-77
2022/04/10 07:49:58;;;;;;;11.52;2.58;;;;;;;-141.50;100.00;63355.56;5091384;28;20054;-76
2022/04/10 07:52:24;;;;;;;7.60;1.73;;;;;;;-141.50;100.00;63355.56;5095398;28;20089;-75
2022/04/10 07:54:54;;;;;;;8.55;2.25;;;;;;;-141.50;100.00;63355.56;5078487;28;20598;-76
2022/04/10 07:57:21;;;;;;;10.98;2.40;;;;;;;-141.50;100.00;63355.56;5093855;28;20048;-78
2022/04/10 07:59:48;;;;;;;12.40;2.17;;;;;;;-141.50;100.00;63355.56;5078155;28;20582;-77
2022/04/10 08:02:14;;;;;;;8.70;2.35;;;;;;;-141.50;100.00;63355.56;5097510;28;20090;-76
2022/04/10 08:04:41;;;;;;;11.77;2.17;;;;;;;-141.50;100.00;63355.56;5078733;28;20059;-78
2022/04/10 08:07:08;;;;;;;12.80;2.45;;;;;;;-141.50;100.00;63355.56;5086964;28;20661;-75
2022/04/10 08:09:34;;;;;;;13.02;2.28;;;;;;;-141.50;100.00;63355.56;5069868;28;20051;-76
2022/04/10 08:12:01;;;;;;;13.68;2.25;;;;;;;-141.50;100.00;63355.56;5066292;28;20132;-75
2022/04/10 08:14:28;;;;;;;13.50;2.13;;;;;;;-141.50;100.00;63355.56;5092396;28;20047;-73
2022/04/10 08:16:54;;;;;;;21.00;2.30;;;;;;;-141.50;100.00;63355.56;5077353;28;20381;-75
2022/04/10 08:19:21;;;;;;;6.88;2.20;;;;;;;-141.50;100.00;63355.56;5090170;28;20056;-77
2022/04/10 08:21:47;;;;;;;12.32;2.20;;;;;;;-141.50;100.00;63355.56;5077495;28;20373;-75
2022/04/10 08:24:14;;;;;;;10.77;1.95;;;;;;;-141.50;100.00;63355.56;5082525;28;20587;-75
2022/04/10 08:26:40;;;;;;;11.13;2.17;;;;;;;-141.50;100.00;63355.56;5088335;28;20278;-78
2022/04/10 08:29:07;;;;;;;11.50;2.40;;;;;;;-141.50;100.00;63355.56;5097876;28;20519;-77
2022/04/10 08:31:34;;;;;;;16.42;2.15;;;;;;;-141.50;100.00;63355.56;5089768;28;20055;-75
2022/04/10 08:34:00;;;;;;;13.88;2.15;;;;;;;-141.50;100.00;63355.56;5089498;28;20777;-76
2022/04/10 08:36:27;;;;;;;9.15;2.08;;;;;;;-141.50;100.00;63355.56;5089262;28;20097;-75
2022/04/10 08:38:53;;;;;;;9.90;2.10;;;;;;;-141.50;100.00;63355.56;5092736;28;20052;-77
2022/04/10 08:41:21;;;;;;;11.77;2.20;;;;;;;-141.50;100.00;63355.56;5074607;28;20051;-79
2022/04/10 08:43:48;;;;;;;15.35;2.35;;;;;;;-141.50;100.00;63355.56;5095081;28;20097;-77
2022/04/10 08:46:18;;;;;;;8.55;2.20;;;;;;;-141.50;100.00;63355.56;5078200;28;20060;-78
2022/04/10 08:48:45;;;;;;;12.55;2.47;;;;;;;-141.50;100.00;63355.56;5074709;28;20074;-74
2022/04/10 08:51:11;;;;;;;9.25;2.00;;;;;;;-141.50;100.00;63355.56;5089013;28;20058;-74
2022/04/10 08:53:38;;;;;;;11.15;2.45;;;;;;;-141.50;100.00;63355.56;5096378;28;20147;-76
2022/04/10 08:56:07;;;;;;;14.75;2.65;;;;;;;-141.50;100.00;63355.56;5081194;28;20669;-74
2022/04/10 08:58:34;;;;;;;10.80;2.80;;;;;;;-141.50;100.00;63355.56;5070847;28;20461;-75
2022/04/10 09:01:01;;;;;;;11.13;2.05;;;;;;;-141.50;100.00;63355.56;5078354;28;20143;-75
2022/04/10 09:03:28;;;;;;;10.15;2.58;;;;;;;-141.50;100.00;63355.56;5096361;28;20083;-77
2022/04/10 09:06:06;;;;;;;10.70;2.65;;;;;;;-141.50;100.00;63355.56;5084951;28;20174;-73
2022/04/10 09:08:33;;;;;;;8.88;2.20;;;;;;;-141.50;100.00;63355.56;5082014;28;20057;-76
2022/04/10 09:11:00;;;;;;;5.63;1.80;;;;;;;-141.50;100.00;63355.56;5071569;28;20064;-75
2022/04/10 09:13:51;;;;;;;11.13;2.38;;;;;;;-141.50;100.00;63355.56;5089265;28;20136;-76
2022/04/10 09:16:21;;;;;;;14.30;2.25;;;;;;;-141.50;100.00;63355.56;5087608;28;20636;-75
2022/04/10 09:19:00;;;;;;;10.27;1.92;;;;;;;-141.50;100.00;63355.56;5072159;28;20519;-76
2022/04/10 09:21:29;;;;;;;15.65;2.03;;;;;;;-141.50;100.00;63355.56;5093886;28;20047;-76
2022/04/10 09:24:03;;;;;;;10.45;2.13;;;;;;;-141.50;100.00;63355.56;5087761;28;20075;-77
2022/04/10 09:26:55;;;;;;;14.10;2.22;;;;;;;-141.50;100.00;63355.56;5070389;28;20082;-76
2022/04/10 09:29:24;;;;;;;10.45;1.80;;;;;;;-141.50;100.00;63355.56;5089922;28;20303;-76
2022/04/10 09:31:52;;;;;;;12.93;2.17;;;;;;;-141.50;100.00;63355.56;5088232;28;20485;-77
2022/04/10 09:34:26;;;;;;;9.82;2.28;;;;;;;-141.50;100.00;63355.56;5088125;28;20059;-76
2022/04/10 09:37:14;;;;;;;12.50;1.90;;;;;;;-141.50;100.00;63355.56;5073596;28;20063;-76
2022/04/10 09:39:41;;;;;;;8.68;2.28;;;;;;;-141.50;100.00;63355.56;5088600;28;20056;-77
2022/04/10 09:42:10;;;;;;;12.80;2.78;;;;;;;-141.50;100.00;63355.56;5085855;28;20087;-78
2022/04/10 09:44:56;;;;;;;8.43;1.88;;;;;;;-141.50;100.00;63355.56;5065205;28;20609;-75
2022/04/10 09:47:24;;;;;;;10.68;2.30;;;;;;;-141.50;100.00;63355.56;5083444;28;20103;-79
2022/04/10 09:49:53;;;;;;;8.90;1.92;;;;;;;-141.50;100.00;63355.56;5088846;28;20091;-79
2022/04/10 09:52:20;;;;;;;9.43;1.77;;;;;;;-141.50;100.00;63355.56;5074947;28;20785;-77
2022/04/10 09:54:50;;;;;;;8.57;2.08;;;;;;;-141.50;100.00;63355.56;5088771;28;20081;-78
2022/04/10 09:57:18;;;;;;;9.80;2.58;;;;;;;-141.50;100.00;63355.56;5087950;28;20699;-76
2022/04/10 09:59:50;;;;;;;14.98;2.45;;;;;;;-141.50;100.00;63355.56;5088844;28;20061;-77
2022/04/10 10:02:19;;;;;;;5.88;1.77;;;;;;;-141.50;100.00;63355.56;5086697;28;20122;-78
2022/04/10 10:04:48;;;;;;;13.00;2.03;;;;;;;-141.50;100.00;63355.56;5074241;28;20052;-78
2022/04/10 10:07:16;;;;;;;7.43;1.63;;;;;;;-141.50;100.00;63355.56;5088241;28;20405;-76
2022/04/10 10:09:46;;;;;;;10.73;1.98;;;;;;;-141.50;100.00;63355.56;5090337;28;20075;-75
2022/04/10 10:12:14;;;;;;;9.30;1.80;;;;;;;-141.50;100.00;63355.56;5069900;28;20103;-77
2022/04/10 10:14:41;;;;;;;12.50;2.38;;;;;;;-141.50;100.00;63355.56;5087959;28;20048;-78
2022/04/10 10:17:09;;;;;;;8.60;1.90;;;;;;;-141.50;100.00;63355.56;5109446;28;20109;-76
2022/04/10 10:19:38;;;;;;;7.60;2.33;;;;;;;-141.50;100.00;63355.56;5076597;28;20052;-77
2022/04/10 10:22:07;;;;;;;9.05;1.90;;;;;;;-141.50;100.00;63355.56;5085720;28;20079;-76
2022/04/10 10:24:49;;;;;;;8.27;2.40;;;;;;;-141.50;100.00;63355.56;5087861;28;20083;-75
2022/04/10 10:27:34;;;;;;;7.47;2.10;;;;;;;-141.50;100.00;63355.56;5088468;28;20055;-75
2022/04/10 10:30:20;;;;;;;8.35;2.22;;;;;;;-141.50;100.00;63355.56;5092856;28;20083;-76
2022/04/10 10:32:52;;;;;;;10.68;2.40;;;;;;;-141.50;100.00;63355.56;5071884;28;20048;-76
2022/04/10 10:35:39;;;;;;;11.88;2.97;;;;;;;-141.50;100.00;63355.56;5069322;28;20052;-77
2022/04/10 10:38:22;;;;;;;12.27;3.30;;;;;;;-141.50;100.00;63355.56;5088192;28;20079;-76
2022/04/10 10:40:51;;;;;;;10.95;2.53;;;;;;;-141.50;100.00;63355.56;5082404;28;20089;-77
2022/04/10 10:43:22;;;;;;;9.80;2.28;;;;;;;-141.50;100.00;63355.56;5093917;28;20151;-76
2022/04/10 10:45:50;;;;;;;9.80;2.50;;;;;;;-141.50;100.00;63355.56;5088075;28;20067;-76
2022/04/10 10:48:38;;;;;;;8.80;1.83;;;;;;;-141.50;100.00;63355.56;5095979;28;20147;-76
2022/04/10 10:51:11;;;;;;;7.90;2.00;;;;;;;-141.50;100.00;63355.56;5092748;28;20060;-76
2022/04/10 10:53:44;;;;;;;7.13;1.85;;;;;;;-141.50;100.00;63355.56;5109638;28;20106;-75
2022/04/10 10:56:17;;;;;;;5.78;1.35;;;;;;;-141.50;100.00;63355.56;5103645;28;20152;-75
2022/04/10 10:59:31;;;;;;;9.07;1.48;;;;;;;-141.50;100.00;63355.56;5087631;28;20063;-76
2022/04/10 11:02:04;;;;;;;8.23;1.35;;;;;;;-141.50;100.00;63355.56;5086493;28;20098;-76
2022/04/10 11:04:38;;;;;;;9.75;1.67;;;;;;;-141.50;100.00;63355.56;5088163;28;20135;-76
2022/04/10 11:07:20;;;;;;;12.00;2.03;;;;;;;-141.50;100.00;63355.56;5087046;28;20144;-78
2022/04/10 11:09:53;;;;;;;10.65;1.92;;;;;;;-141.50;100.00;63355.56;5073157;28;20078;-78
2022/04/10 11:12:21;;;;;;;7.28;1.80;;;;;;;-141.50;100.00;63355.56;5050126;28;20048;-76
2022/04/10 11:14:51;;;;;;;7.13;2.20;;;;;;;-141.50;100.00;63355.56;5067925;28;20131;-76
2022/04/10 11:17:20;;;;;;;9.32;1.58;;;;;;;-141.50;100.00;63355.56;5086474;28;20101;-77